Great Bend, New York
Current Conditions -  °F | °C
As of 7:58 PM on Tuesday 27 Jan 2015 (Local Time) from KGTB Reporting Station
Overcast Overcast  
Wind Chill: -19°   Ceiling: 3400
Heat Index: -14°   Visibility: 10mi
Dew Point: -23°   Wind: 5mph
Humidity: 47%   Direction: 330°NNW
Pressure: 30.01"   Gusts: NA
Location:  44.03°N, 75.72°W
Report Text: KGTB 280058Z AUTO 33004KT 10SM OVC034 M14/M23 A3001 RMK AO2 SLP180 T11421234
Loading
Personal Weather Stations






























Interactive Weather Map New forecast layout! Learn more

10-Day Weather Forecast

Advertisements
Track Severe Weather on mobile